Tiempo atmosférico en la estación meteorológica de El Paso, Santa Cruz de Tenerife (844 m.)



Fecha
DESCASC
Temp. máxima en grados centígrados (hora)
DESCASC
Temp. mínima en grados centígrados (hora)
DESCASC
Temp. media en grados centígrados
DESCASC
Racha de viento máxima en m/sg (hora)
DESCASC
Velocidad máxima media en intervalos de 10 minutos(hora)
DESCASC
Precipitaciones diarias en mm
DESCASC
Precipitaciones de 00:00 a 06:00 en mm
DESCASC
Precipitaciones de 06:00 a 12:00 en mm
DESCASC
Precipitaciones de 12:00 a 18:00 en mm
DESCASC
Precipitaciones de 18:00 a 24:00 en mm
DESCASC
18-02-2018 13.9 (10:00) 8.3 (08:00) 11.1 13.61 (01:20) 6.11 (04:20) 0 0 0 0 0
17-02-2018 15.4 (14:20) 7.8 (06:50) 11.6 12.78 (23:59) 6.39 (23:59) 0 0 0 0 0
16-02-2018 18.2 (13:40) 7.1 (07:00) 12.7 7.22 (13:50) 4.44 (13:50) 0 0 0 0 0
15-02-2018 18.3 (14:40) 6.4 (00:00) 12.3 8.89 (14:40) 5.28 (14:50) 0 0 0 0 0
14-02-2018 17.6 (13:30) 5.4 (00:00) 11.5 7.78 (00:30) 3.89 (00:10) 0 0 0 0 0
13-02-2018 13.8 (14:20) 6.9 (00:00) 10.4 15.83 (02:10) 8.89 (02:10) 0 0 0 0 0
12-02-2018 13.7 (12:40) 8.5 (00:00) 11.1 14.72 (12:30) 8.61 (13:30) 0 0 0 0 0
11-02-2018 12.6 (14:30) 8.8 (00:00) 10.7 17.5 (02:00) 10 (12:40) 0.2 0.2 0 0 0
10-02-2018 14.9 (15:20) 7.3 (00:00) 11.1 17.5 (23:00) 8.61 (09:00) 0.8 0 0 0 0.8
09-02-2018 12.8 (12:50) 8.4 (00:00) 10.6 16.94 (13:50) 8.06 (13:20) 0.6 0.2 0 0.2 0.2
08-02-2018 11.6 (14:20) 5.3 (00:00) 8.5 18.61 (07:30) 8.61 (17:10) 1.4 0.2 0.4 0.4 0.4
07-02-2018 14.5 (15:50) 4.3 (00:00) 9.4 14.17 (16:20) 6.67 (17:00) 0 0 0 0 0
06-02-2018 11.5 (13:30) 4.8 (00:00) 8.2 13.61 (17:20) 7.5 (12:20) 0.6 0 0 0.6 0
05-02-2018 14.4 (13:10) 5.2 (00:00) 9.8 12.22 (14:10) 6.39 (11:30) 0 0 0 0 0
04-02-2018 14.8 (16:00) 7.6 (00:00) 11.2 17.78 (09:00) 10 (09:50) 0.2 0.2 0 0 0
03-02-2018 12.8 (12:30) 9.1 (00:00) 11 20.56 (14:30) 10.83 (14:10) 1.2 1 0 0.2 0
02-02-2018 13.4 (14:10) 8.8 (00:00) 11.1 19.72 (23:40) 10.83 (23:50) 4.2 1.8 2.4 0 0
01-02-2018 13.2 (12:30) 7.8 (00:00) 10.5 19.44 (11:30) 10.28 (11:30) 8.4 0 7.4 1 0
31-01-2018 14.7 (12:30) 4.1 (00:00) 9.4 14.44 (23:10) 7.5 (23:59) 0.6 0 0 0 0.6
30-01-2018 15.2 (14:20) 6.9 (00:00) 11 18.06 (18:00) 10.83 (17:40) 1 0.4 0.6 0 0
29-01-2018 14.4 (14:40) 4.2 (00:00) 9.3 15.83 (00:10) 9.72 (00:10) 0 0 0 0 0
28-01-2018 12.3 (12:40) 8.4 (00:00) 10.3 21.39 (10:40) 11.39 (23:40) 2.4 0.4 0.6 1.4 0
27-01-2018 11.9 (16:00) 7.8 (00:00) 9.8 26.67 (06:10) 14.17 (11:40) 5 3.8 1.2 0 0
26-01-2018 12.2 (14:10) 8.6 (00:00) 10.4 23.33 (05:30) 12.22 (01:50) 5 0 1.4 1.4 2.2
25-01-2018 16.8 (15:50) 9.5 (00:00) 13.1 20 (22:20) 11.67 (23:20) 0 0 0 0 0
24-01-2018 20.8 (12:50) 9.9 (00:00) 15.3 11.94 (11:20) 6.67 (11:40) 0 0 0 0 0
23-01-2018 20.4 (14:50) 10 (00:00) 15.2 17.78 (09:00) 11.39 (09:10) 0 0 0 0 0
22-01-2018 19.8 (12:40) 10.1 (00:00) 14.9 16.94 (01:20) 10 (01:20) 0 0 0 0 0

Gráficas

Temp. máximas Temp. mínimas Temp. medias Precipitaciones Rachas de viento máximas Velocidades máximas media en intervalos de 10 minutos

Datos horarios

Fecha y hora oficial Temperatura (ºC) Velocidad del viento (km/h) Dirección del viento Racha (km/h) Dirección de racha Precipitación (mm) Presión (hPa) Tendencia (hPa) Humedad (%)
2018-02-20 23:00:00 9.7 12 Sudeste 27 Sudeste 0 -- -- 74
2018-02-20 22:00:00 8 3 Sudeste 8 Este 0 -- -- 77
2018-02-20 21:00:00 9.8 9 Nordeste 25 Este 0 -- -- 66
2018-02-20 20:00:00 9.6 15 Este 30 Este 0 -- -- 71
2018-02-20 19:00:00 10.1 18 Este 33 Sudeste 0 -- -- 75
2018-02-20 18:00:00 11.1 17 Este 33 Este 0 -- -- 76
2018-02-20 17:00:00 11.3 15 Este 32 Este 0 -- -- 77
2018-02-20 16:00:00 11.6 13 Este 22 Este 0 -- -- 77
2018-02-20 15:00:00 12.2 7 Noroeste 24 Sudeste 0 -- -- 79
2018-02-20 14:00:00 12.7 7 Este 22 Sudeste 0 -- -- 73
2018-02-20 13:00:00 13.4 10 Sudeste 39 Este 0 -- -- 69
2018-02-20 12:00:00 13.7 20 Este 36 Este 0 -- -- 63
2018-02-20 11:00:00 12.7 19 Este 36 Este 0 -- -- 71
2018-02-20 10:00:00 11.7 15 Este 32 Este 0 -- -- 70
2018-02-20 09:00:00 8.8 12 Sudeste 24 Este 0 -- -- 84
2018-02-20 08:00:00 8.3 4 Este 20 Este 0 -- -- 82
2018-02-20 07:00:00 9.7 9 Este 27 Este 0 -- -- 81
2018-02-20 06:00:00 9.8 6 Sudeste 36 Sudeste 0 -- -- 84
2018-02-20 05:00:00 9.7 18 Este 40 Este 0 -- -- 76
2018-02-20 04:00:00 10.4 21 Este 49 Este 0 -- -- 64
2018-02-20 03:00:00 9.5 21 Este 36 Este 0 -- -- 67
2018-02-20 02:00:00 8.1 9 Nordeste 20 Este 0 -- -- 74
2018-02-20 01:00:00 6.9 6 Este 11 Sudeste 0 -- -- 83
2018-02-20 00:00:00 7.6 7 Sudeste 13 Sudeste 0 -- -- 83
2018-02-19 23:00:00 8.7 5 Este 33 Este 0 -- -- 78
2018-02-19 22:00:00 9.3 18 Este 34 Este 0 -- -- 82
2018-02-19 21:00:00 10.1 20 Este 40 Sudeste 0 -- -- 80
2018-02-19 20:00:00 10.3 17 Este 38 Este 0 -- -- 76
2018-02-19 19:00:00 10.8 19 Este 43 Este 0 -- -- 75
2018-02-19 18:00:00 11.4 21 Este 45 Este 0 -- -- 78
2018-02-19 17:00:00 12.3 19 Este 37 Este 0 -- -- 74
2018-02-19 16:00:00 12.5 12 Sudeste 28 Sudeste 0 -- -- 77
2018-02-19 15:00:00 12.5 12 Este 40 Este 0 -- -- 73
2018-02-19 14:00:00 12.9 20 Este 36 Sudeste 0 -- -- 72
2018-02-19 13:00:00 11.6 14 Sudeste 32 Sudeste 0.2 -- -- 85
2018-02-19 12:00:00 10.8 12 Sudeste 22 Sudeste 0 -- -- 86
2018-02-19 11:00:00 12.1 4 Sudeste 11 Sudeste 0 -- -- 77
2018-02-19 10:00:00 11.8 2 Oeste 7 Oeste 0 -- -- 73
2018-02-19 09:00:00 7.3 3 Sudeste 8 Este 0 -- -- 91
2018-02-19 08:00:00 5.5 4 Este 8 Este 0 -- -- 90
2018-02-19 07:00:00 5.7 6 Este 10 Este 0 -- -- 88
2018-02-19 06:00:00 5.7 4 Este 10 Este 0 -- -- 88
2018-02-19 05:00:00 6.3 3 Este 10 Nordeste 0 -- -- 87
2018-02-19 04:00:00 7 6 Nordeste 22 Este 0 -- -- 84
2018-02-19 03:00:00 6.9 6 Nordeste 26 Nordeste 0 -- -- 85
2018-02-19 02:00:00 9 12 Este 29 Este 0 -- -- 74
2018-02-19 01:00:00 9.1 13 Este 25 Este 0 -- -- 79
2018-02-19 00:00:00 9.5 14 Este 32 Sudeste 0 -- -- 76
2018-02-18 23:00:00 9.2 15 Este 31 Este 0 -- -- 80
2018-02-18 22:00:00 9.1 15 Este 31 Este 0 -- -- 79
2018-02-18 21:00:00 9.2 13 Este 26 Este 0 -- -- 80
2018-02-18 20:00:00 9.8 10 Este 22 Este 0 -- -- 78
2018-02-18 19:00:00 10.3 8 Sudeste 18 Sudeste 0 -- -- 84
2018-02-18 18:00:00 10.9 8 Sudeste 18 Este 0 -- -- 88
2018-02-18 17:00:00 11.4 10 Este 16 Este 0 -- -- 86
2018-02-18 16:00:00 12.3 7 Oeste 12 Oeste 0 -- -- 82
2018-02-18 15:00:00 12.1 6 Oeste 15 Oeste 0 -- -- 82
2018-02-18 14:00:00 12.9 10 Oeste 17 Oeste 0 -- -- 78
2018-02-18 13:00:00 12.9 6 Noroeste 23 Este 0 -- -- 75
2018-02-18 12:00:00 12.3 15 Sudeste 27 Este 0 -- -- 76
2018-02-18 11:00:00 13.7 10 Este 22 Sudeste 0 -- -- 68
2018-02-18 10:00:00 13.9 4 Sudeste 17 Este 0 -- -- 65
2018-02-18 09:00:00 9.8 5 Este 26 Este 0 -- -- 76
2018-02-18 08:00:00 8.3 7 Nordeste 31 Este 0 -- -- 80
2018-02-18 07:00:00 9.2 13 Este 30 Este 0 -- -- 79
2018-02-18 06:00:00 9.1 16 Este 34 Sudeste 0 -- -- 82
2018-02-18 05:00:00 9.6 21 Este 37 Este 0 -- -- 77
2018-02-18 04:00:00 9.4 21 Este 36 Este 0 -- -- 78
2018-02-18 03:00:00 9.5 10 Este 31 Este 0 -- -- 74
2018-02-18 02:00:00 9.8 21 Este 49 Este 0 -- -- 73
2018-02-18 01:00:00 10 19 Este 40 Nordeste 0 -- -- 72
2018-02-18 00:00:00 10.2 23 Este 46 Este 0 -- -- 68
2018-02-17 23:00:00 10.3 19 Este 38 Este 0 -- -- 66
2018-02-17 22:00:00 10.4 14 Este 35 Este 0 -- -- 65
2018-02-17 21:00:00 10.6 18 Este 37 Este 0 -- -- 63
2018-02-17 20:00:00 10.1 17 Este 31 Este 0 -- -- 73
2018-02-17 19:00:00 11 14 Este 25 Este 0 -- -- 73
2018-02-17 18:00:00 12 14 Este 29 Este 0 -- -- 75
2018-02-17 17:00:00 13.8 13 Este 37 Sudeste 0 -- -- 72
2018-02-17 16:00:00 14.4 18 Este 28 Sudeste 0 -- -- 70
2018-02-17 15:00:00 15.2 16 Este 30 Este 0 -- -- 68
2018-02-17 14:00:00 15.2 17 Este 29 Este 0 -- -- 70
2018-02-17 13:00:00 14.9 18 Este 28 Este 0 -- -- 68
2018-02-17 12:00:00 14.1 18 Este 33 Este 0 -- -- 69
2018-02-17 11:00:00 14.5 17 Este 27 Este 0 -- -- 63
2018-02-17 10:00:00 13.9 13 Sudeste 23 Este 0 -- -- 61
2018-02-17 09:00:00 11.1 9 Sudeste 15 Sudeste 0 -- -- 52
2018-02-17 08:00:00 8.9 8 Sudeste 14 Sudeste 0 -- -- 57
2018-02-17 07:00:00 8.1 7 Sudeste 13 Sudeste 0 -- -- 60
2018-02-17 06:00:00 9.6 7 Sudeste 20 Sudeste 0 -- -- 54
2018-02-17 05:00:00 10.5 10 Sudeste 18 Sudeste 0 -- -- 52
2018-02-17 04:00:00 11 11 Sudeste 20 Sudeste 0 -- -- 50
2018-02-17 03:00:00 10.4 6 Sudeste 13 Sudeste 0 -- -- 50
2018-02-17 02:00:00 9.5 5 Sudeste 10 Este 0 -- -- 54
2018-02-17 01:00:00 11.6 4 Sudeste 18 Sudeste 0 -- -- 47
2018-02-17 00:00:00 11.9 11 Sudeste 21 Este 0 -- -- 44
2018-02-16 23:00:00 12.1 14 Este 23 Sudeste 0 -- -- 39
2018-02-16 22:00:00 12.4 15 Sudeste 24 Este 0 -- -- 40
2018-02-16 21:00:00 9.9 7 Este 12 Este 0 -- -- 65
2018-02-16 20:00:00 11.4 4 Este 12 Nordeste 0 -- -- 68
2018-02-16 19:00:00 15.1 2 Oeste 16 Oeste 0 -- -- 57
2018-02-16 18:00:00 16.7 10 Oeste 18 Oeste 0 -- -- 52
2018-02-16 17:00:00 17.2 9 Oeste 20 Sudoeste 0 -- -- 49
2018-02-16 16:00:00 17.3 11 Oeste 25 Oeste 0 -- -- 47
2018-02-16 15:00:00 17.9 11 Oeste 24 Oeste 0 -- -- 44
2018-02-16 14:00:00 17.8 14 Oeste 26 Oeste 0 -- -- 44
2018-02-16 13:00:00 17.9 8 Sudoeste 25 Oeste 0 -- -- 47
2018-02-16 12:00:00 17.3 9 Oeste 18 Oeste 0 -- -- 41
2018-02-16 11:00:00 17.1 9 Oeste 15 Oeste 0 -- -- 47
2018-02-16 10:00:00 15.5 4 Este 13 Este 0 -- -- 43
2018-02-16 09:00:00 9.4 10 Este 13 Este 0 -- -- 57
2018-02-16 08:00:00 8.2 7 Sudeste 12 Sudeste 0 -- -- 56
2018-02-16 07:00:00 7.1 7 Sudeste 12 Este 0 -- -- 60
2018-02-16 06:00:00 8.2 7 Sudeste 12 Este 0 -- -- 55
2018-02-16 05:00:00 7.6 6 Este 12 Sudeste 0 -- -- 58
2018-02-16 04:00:00 8.8 8 Este 14 Este 0 -- -- 55
2018-02-16 03:00:00 8.3 8 Este 13 Este 0 -- -- 55
2018-02-16 02:00:00 8.4 7 Este 10 Este 0 -- -- 55
2018-02-16 01:00:00 8.4 7 Este 10 Este 0 -- -- 56
2018-02-16 00:00:00 8.5 5 Nordeste 10 Este 0 -- -- 55
2018-02-15 23:00:00 9.4 3 Nordeste 18 Sudeste 0 -- -- 52
2018-02-15 22:00:00 10 7 Este 12 Este 0 -- -- 52
2018-02-15 21:00:00 11.1 8 Este 15 Sudeste 0 -- -- 48
2018-02-15 20:00:00 14.1 5 Este 15 Sudeste 0 -- -- 42
2018-02-15 19:00:00 15.8 9 Este 17 Sudeste 0 -- -- 34
2018-02-15 18:00:00 17 9 Este 19 Este 0 -- -- 32
2018-02-15 17:00:00 17.4 11 Sudeste 23 Este 0 -- -- 33
2018-02-15 16:00:00 18 9 Este 28 Este 0 -- -- 33
2018-02-15 15:00:00 18.2 17 Sudeste 32 Este 0 -- -- 33
2018-02-15 14:00:00 17.8 15 Este 27 Este 0 -- -- 33
2018-02-15 13:00:00 17.8 15 Este 28 Este 0 -- -- 38
2018-02-15 12:00:00 16.9 17 Este 26 Sudeste 0 -- -- 51
2018-02-15 11:00:00 16 15 Este 25 Este 0 -- -- 53
2018-02-15 10:00:00 14.8 10 Sudeste 26 Sudeste 0 -- -- 45
2018-02-15 09:00:00 11.8 12 Sudeste 22 Sudeste 0 -- -- 43
2018-02-15 08:00:00 10.5 11 Sudeste 18 Sudeste 0 -- -- 42
2018-02-15 07:00:00 9.7 6 Sudeste 26 Sudeste 0 -- -- 47
2018-02-15 06:00:00 10.3 15 Sudeste 24 Sudeste 0 -- -- 45
2018-02-15 05:00:00 10.3 13 Sudeste 19 Sudeste 0 -- -- 46
2018-02-15 04:00:00 6.8 5 Sudeste 12 Este 0 -- -- 63
2018-02-15 03:00:00 7 7 Este 12 Sudeste 0 -- -- 62
2018-02-15 02:00:00 7 6 Sudeste 11 Este 0 -- -- 64
2018-02-15 01:00:00 8.8 9 Sudeste 15 Este 0 -- -- 58
2018-02-15 00:00:00 8.1 9 Este 17 Este 0 -- -- 57
2018-02-14 23:00:00 9.1 10 Sudeste 15 Sudeste 0 -- -- 57
2018-02-14 22:00:00 8.9 6 Este 15 Este 0 -- -- 52
2018-02-14 21:00:00 10.4 5 Este 12 Sudeste 0 -- -- 47
2018-02-14 20:00:00 10.5 6 Este 9 Este 0 -- -- 62
2018-02-14 19:00:00 14.6 2 Oeste 8 Oeste 0 -- -- 60
2018-02-14 18:00:00 16.1 4 Oeste 13 Oeste 0 -- -- 53
2018-02-14 17:00:00 16.4 8 Noroeste 18 Oeste 0 -- -- 48
2018-02-14 16:00:00 16.7 11 Oeste 22 Oeste 0 -- -- 45
2018-02-14 15:00:00 17 12 Oeste 21 Oeste 0 -- -- 43
2018-02-14 14:00:00 17.3 13 Oeste 21 Oeste 0 -- -- 41
2018-02-14 13:00:00 17.2 13 Oeste 23 Oeste 0 -- -- 39
2018-02-14 12:00:00 16.8 12 Oeste 18 Oeste 0 -- -- 38
2018-02-14 11:00:00 16.6 2 Nordeste 9 Este 0 -- -- 37
2018-02-14 10:00:00 13.2 6 Este 12 Sudeste 0 -- -- 53
2018-02-14 09:00:00 7.3 6 Este 12 Este 0 -- -- 66
2018-02-14 08:00:00 5.4 6 Este 11 Sudeste 0 -- -- 69
2018-02-14 07:00:00 5.9 5 Sudeste 10 Este 0 -- -- 69
2018-02-14 06:00:00 5.6 6 Sudeste 9 Sudeste 0 -- -- 72
2018-02-14 05:00:00 5.8 5 Este 12 Sudeste 0 -- -- 72
2018-02-14 04:00:00 5.9 6 Sudeste 10 Este 0 -- -- 73
2018-02-14 03:00:00 6.1 7 Este 11 Este 0 -- -- 81
2018-02-14 02:00:00 8.7 5 Este 18 Este 0 -- -- 82
2018-02-14 01:00:00 9.8 8 Sudeste 28 Este 0 -- -- 83
2018-02-14 00:00:00 9.3 12 Este 21 Este 0 -- -- 87
2018-02-13 23:00:00 7.5 4 Este 9 Este 0 -- -- 84
2018-02-13 22:00:00 7.2 4 Este 6 Este 0 -- -- 85
2018-02-13 21:00:00 8.9 3 Este 6 Este 0 -- -- 84
2018-02-13 20:00:00 10.5 4 Sudeste 17 Este 0 -- -- 75
2018-02-13 19:00:00 11.3 10 Sudeste 20 Este 0 -- -- 73
2018-02-13 18:00:00 12.6 6 Oeste 17 Oeste 0 -- -- 80
2018-02-13 17:00:00 13.1 8 Oeste 20 Este 0 -- -- 76
2018-02-13 16:00:00 13.2 14 Este 27 Este 0 -- -- 73
2018-02-13 15:00:00 13 18 Este 29 Este 0 -- -- 74
2018-02-13 14:00:00 13.6 21 Este 39 Este 0 -- -- 69
2018-02-13 13:00:00 12.6 23 Este 43 Este 0 -- -- 71
2018-02-13 12:00:00 12.7 21 Este 40 Este 0 -- -- 73
2018-02-13 11:00:00 12 25 Este 44 Este 0 -- -- 73
2018-02-13 10:00:00 11.6 24 Este 49 Este 0 -- -- 65
2018-02-13 09:00:00 10.1 26 Este 44 Este 0 -- -- 72
2018-02-13 08:00:00 10 23 Este 53 Este 0 -- -- 72
2018-02-13 07:00:00 9.8 24 Este 42 Este 0 -- -- 75
2018-02-13 06:00:00 9.8 20 Este 48 Este 0 -- -- 73
2018-02-13 05:00:00 10 24 Este 48 Este 0 -- -- 71
2018-02-13 04:00:00 9.6 24 Este 56 Este 0 -- -- 77
2018-02-13 03:00:00 10 31 Este 57 Este 0 -- -- 70
2018-02-13 02:00:00 9.7 26 Este 50 Este 0 -- -- 72
2018-02-13 01:00:00 10.1 16 Este 40 Este 0 -- -- 76
2018-02-13 00:00:00 9.1 6 Nordeste 36 Este 0 -- -- 80
2018-02-12 23:00:00 9.7 18 Este 52 Este 0 -- -- 81
2018-02-12 22:00:00 10.5 24 Este 48 Este 0 -- -- 72
2018-02-12 21:00:00 9.8 14 Este 38 Este 0 -- -- 79
2018-02-12 20:00:00 9.7 16 Este 41 Este 0 -- -- 78
2018-02-12 19:00:00 10 22 Este 44 Este 0 -- -- 76
2018-02-12 18:00:00 10.5 18 Este 35 Este 0 -- -- 80
2018-02-12 17:00:00 10.9 18 Este 38 Este 0 -- -- 82
2018-02-12 16:00:00 11.5 23 Este 44 Sudeste 0 -- -- 81
2018-02-12 15:00:00 12.6 28 Este 50 Este 0 -- -- 82
2018-02-12 14:00:00 12.3 26 Sudeste 46 Este 0 -- -- 83
2018-02-12 13:00:00 13.4 28 Este 53 Sudeste 0 -- -- 75
2018-02-12 12:00:00 11.8 26 Este 53 Este 0 -- -- 80
2018-02-12 11:00:00 10.9 25 Este 43 Este 0 -- -- 84
2018-02-12 10:00:00 10.9 19 Este 41 Este 0 -- -- 83
2018-02-12 09:00:00 9 12 Este 42 Este 0 -- -- 89
2018-02-12 08:00:00 9 8 Este 33 Este 0 -- -- 83
2018-02-12 07:00:00 9.4 21 Este 41 Este 0 -- -- 83
2018-02-12 06:00:00 8.8 21 Este 42 Este 0 -- -- 85
2018-02-12 05:00:00 8.6 19 Este 46 Este 0 -- -- 86
2018-02-12 04:00:00 8.7 22 Este 44 Este 0 -- -- 91
2018-02-12 03:00:00 9.1 12 Este 41 Este 0 -- -- 85
2018-02-12 02:00:00 9 15 Este 48 Este 0 -- -- 83
2018-02-12 01:00:00 9.1 25 Este 45 Este 0 -- -- 84
2018-02-12 00:00:00 9.3 16 Este 42 Este 0 -- -- 82
2018-02-11 23:00:00 9.4 20 Este 43 Este 0 -- -- 79
2018-02-11 22:00:00 9.6 16 Este 49 Este 0 -- -- 80
2018-02-11 21:00:00 9.6 27 Este 55 Este 0 -- -- 78
2018-02-11 20:00:00 9.6 27 Este 47 Este 0 -- -- 74
2018-02-11 19:00:00 9.5 25 Este 50 Este 0 -- -- 81
2018-02-11 18:00:00 11.3 28 Este 56 Este 0 -- -- 74
2018-02-11 17:00:00 11.4 30 Este 61 Este 0 -- -- 76
2018-02-11 16:00:00 11.4 33 Este 58 Este 0 -- -- 77
2018-02-11 15:00:00 11.7 33 Este 60 Sudeste 0 -- -- 77
2018-02-11 14:00:00 12.1 34 Este 61 Sudeste 0 -- -- 70
2018-02-11 13:00:00 11.1 33 Este 60 Este 0 -- -- 78
2018-02-11 12:00:00 10.6 30 Este 59 Este 0 -- -- 75
2018-02-11 11:00:00 10 25 Este 54 Este 0 -- -- 77
2018-02-11 10:00:00 9.9 26 Este 56 Este 0 -- -- 75
2018-02-11 09:00:00 9.2 26 Este 63 Sudeste 0 -- -- 81
2018-02-11 08:00:00 8.9 32 Este 60 Este 0 -- -- 84
2018-02-11 07:00:00 9.4 27 Este 59 Este 0 -- -- 86
2018-02-11 06:00:00 9.4 28 Este 62 Este 0 -- -- 76
2018-02-11 05:00:00 9.5 30 Este 59 Este 0 -- -- 84
2018-02-11 04:00:00 10.1 21 Este 49 Este 0.2 -- -- 81
2018-02-11 03:00:00 9.9 17 Este 51 Este 0 -- -- 77
2018-02-11 02:00:00 9.6 33 Este 63 Este 0 -- -- 81
2018-02-11 01:00:00 9.7 31 Este 61 Este 0 -- -- 80
2018-02-11 00:00:00 10.2 28 Este 55 Este 0 -- -- 76
2018-02-10 23:00:00 10.5 28 Este 63 Este 0 -- -- 80
2018-02-10 22:00:00 10.7 24 Este 58 Este 0.2 -- -- 83
2018-02-10 21:00:00 10.8 25 Este 61 Este 0.4 -- -- 86
2018-02-10 20:00:00 10.8 24 Este 55 Este 0.2 -- -- 86
2018-02-10 19:00:00 11.7 17 Nordeste 54 Este 0 -- -- 72
2018-02-10 18:00:00 12.2 23 Este 50 Este 0 -- -- 70
2018-02-10 17:00:00 13.3 21 Este 45 Este 0 -- -- 70
2018-02-10 16:00:00 14.1 9 Norte 28 Sudeste 0 -- -- 73
2018-02-10 15:00:00 14.6 16 Este 36 Este 0 -- -- 68
2018-02-10 14:00:00 14.8 23 Este 43 Sudeste 0 -- -- 66
2018-02-10 13:00:00 13.9 23 Este 44 Este 0 -- -- 68
2018-02-10 12:00:00 13.2 25 Este 47 Este 0 -- -- 70
2018-02-10 11:00:00 12.8 23 Este 39 Este 0 -- -- 71
2018-02-10 10:00:00 11.6 23 Este 48 Este 0 -- -- 71
2018-02-10 09:00:00 10.1 31 Este 47 Este 0 -- -- 71
2018-02-10 08:00:00 10 15 Este 39 Este 0 -- -- 66
2018-02-10 07:00:00 9.8 20 Sudeste 38 Sudeste 0 -- -- 71
2018-02-10 06:00:00 9.2 20 Sudeste 42 Sudeste 0 -- -- 79
2018-02-10 05:00:00 8.8 18 Sudeste 30 Este 0 -- -- 79
2018-02-10 04:00:00 7.9 8 Este 19 Este 0 -- -- 86
2018-02-10 03:00:00 7.7 2 Nordeste 12 Oeste 0 -- -- 88
2018-02-10 02:00:00 8.8 4 Oeste 45 Este 0 -- -- 88
2018-02-10 01:00:00 10.1 16 Este 45 Este 0 -- -- 77
2018-02-10 00:00:00 9.4 15 Este 35 Sudeste 0 -- -- 84
2018-02-09 23:00:00 9.3 9 Nordeste 36 Este 0 -- -- 88
2018-02-09 22:00:00 10 12 Este 36 Este 0 -- -- 81
2018-02-09 21:00:00 9.6 19 Este 39 Este 0.2 -- -- 88
2018-02-09 20:00:00 9.9 5 Nordeste 33 Sudeste 0 -- -- 88
2018-02-09 19:00:00 9.7 19 Este 35 Este 0 -- -- 86
2018-02-09 18:00:00 10.5 12 Este 36 Este 0 -- -- 80
2018-02-09 17:00:00 11.1 18 Este 37 Este 0 -- -- 82
2018-02-09 16:00:00 11.2 19 Este 40 Este 0 -- -- 83
2018-02-09 15:00:00 11 17 Sudeste 46 Este 0.2 -- -- 86
2018-02-09 14:00:00 12 25 Este 61 Este 0 -- -- 74
2018-02-09 13:00:00 12.8 20 Este 45 Este 0 -- -- 71
2018-02-09 12:00:00 12 11 Este 47 Este 0 -- -- 74
2018-02-09 11:00:00 11.4 10 Sudoeste 45 Norte 0 -- -- 77
2018-02-09 10:00:00 10.1 18 Nordeste 58 Nordeste 0 -- -- 73
2018-02-09 09:00:00 9.8 18 Norte 49 Este 0 -- -- 79
2018-02-09 08:00:00 9.1 17 Nordeste 39 Nordeste 0 -- -- 77
2018-02-09 07:00:00 9.1 6 Oeste 42 Este 0 -- -- 80
2018-02-09 06:00:00 9.3 15 Nordeste 51 Este 0 -- -- 72
2018-02-09 05:00:00 9.3 11 Nordeste 54 Este 0 -- -- 71
2018-02-09 04:00:00 8.9 20 Nordeste 58 Este 0 -- -- 68
2018-02-09 03:00:00 8.5 14 Este 38 Este 0.2 -- -- 82
2018-02-09 02:00:00 9.1 18 Este 44 Este 0 -- -- 74
2018-02-09 01:00:00 8.6 21 Este 48 Este 0 -- -- 71
2018-02-09 00:00:00 8.8 17 Este 49 Este 0 -- -- 74
2018-02-08 23:00:00 9 16 Este 49 Este 0 -- -- 75
2018-02-08 22:00:00 8.4 27 Este 46 Este 0.2 -- -- 84
2018-02-08 21:00:00 8.8 19 Este 52 Este 0 -- -- 75
2018-02-08 20:00:00 8.6 26 Este 59 Este 0.2 -- -- 80
2018-02-08 19:00:00 8.5 25 Este 64 Nordeste 0 -- -- 82
2018-02-08 18:00:00 9 24 Este 55 Este 0 -- -- 72
2018-02-08 17:00:00 10.7 23 Este 65 Este 0.2 -- -- 66
2018-02-08 16:00:00 10.6 29 Este 45 Nordeste 0 -- -- 72
2018-02-08 15:00:00 11 25 Este 53 Este 0 -- -- 68
2018-02-08 14:00:00 11.2 25 Este 45 Este 0.2 -- -- 74
2018-02-08 13:00:00 11.2 20 Este 51 Sudeste 0 -- -- 67
2018-02-08 12:00:00 10.1 21 Este 44 Sudeste 0.4 -- -- 68
2018-02-08 11:00:00 9.7 19 Sudeste 52 Sudeste 0 -- -- 68
2018-02-08 10:00:00 9 26 Este 53 Sudeste 0 -- -- 68
2018-02-08 09:00:00 8.3 24 Sudeste 44 Este 0 -- -- 69
2018-02-08 08:00:00 7.7 27 Este 67 Este 0 -- -- 69
2018-02-08 07:00:00 7.4 28 Sudeste 53 Este 0 -- -- 80
2018-02-08 06:00:00 7.6 28 Este 58 Este 0 -- -- 68
2018-02-08 05:00:00 7.6 19 Sudeste 49 Sudeste 0.2 -- -- 79
2018-02-08 04:00:00 8.2 14 Este 28 Sudeste 0 -- -- 65
2018-02-08 03:00:00 8.1 8 Sur 30 Sudeste 0 -- -- 66
2018-02-08 02:00:00 6.9 5 Este 15 Este 0 -- -- 73
2018-02-08 01:00:00 5.4 3 Este 11 Este 0 -- -- 75
2018-02-08 00:00:00 6.1 4 Este 15 Sudeste 0 -- -- 74
2018-02-07 23:00:00 7.3 4 Este 14 Sudeste 0 -- -- 71
2018-02-07 22:00:00 8.4 5 Este 26 Sudeste 0 -- -- 67
2018-02-07 21:00:00 8.9 7 Nordeste 42 Noroeste 0 -- -- 65
2018-02-07 20:00:00 9.9 12 Norte 41 Noroeste 0 -- -- 53
2018-02-07 19:00:00 11.4 13 Norte 39 Noroeste 0 -- -- 49
2018-02-07 18:00:00 13 15 Noroeste 44 Norte 0 -- -- 45
2018-02-07 17:00:00 13.7 24 Noroeste 51 Noroeste 0 -- -- 47
2018-02-07 16:00:00 14.5 14 Oeste 28 Oeste 0 -- -- 60
2018-02-07 15:00:00 13.9 9 Oeste 26 Sudoeste 0 -- -- 64
2018-02-07 14:00:00 12.7 12 Oeste 23 Oeste 0 -- -- 71
2018-02-07 13:00:00 12 15 Oeste 33 Oeste 0 -- -- 73
2018-02-07 12:00:00 12.8 5 Oeste 15 Oeste 0 -- -- 67
2018-02-07 11:00:00 12.9 3 Nordeste 11 Oeste 0 -- -- 59
2018-02-07 10:00:00 10.7 5 Nordeste 9 Este 0 -- -- 66
2018-02-07 09:00:00 5.6 8 Este 12 Sudeste 0 -- -- 83
2018-02-07 08:00:00 4.6 4 Sudeste 10 Este 0 -- -- 81
2018-02-07 07:00:00 5 3 Este 9 Sudeste 0 -- -- 80
2018-02-07 06:00:00 5.6 6 Este 9 Este 0 -- -- 81
2018-02-07 05:00:00 6.3 5 Este 11 Sudeste 0 -- -- 79
2018-02-07 04:00:00 8 3 Norte 35 Este 0 -- -- 68
2018-02-07 03:00:00 8.9 19 Este 40 Nordeste 0 -- -- 64
2018-02-07 02:00:00 8.5 14 Este 39 Este 0 -- -- 70
2018-02-07 01:00:00 9.1 6 Nordeste 43 Este 0 -- -- 68
2018-02-07 00:00:00 8.6 15 Nordeste 46 Este 0 -- -- 75
2018-02-06 23:00:00 9 23 Este 46 Este 0 -- -- 66
2018-02-06 22:00:00 9.1 22 Este 41 Este 0 -- -- 74
2018-02-06 21:00:00 9.3 19 Este 45 Nordeste 0 -- -- 72
2018-02-06 20:00:00 9.2 22 Este 40 Este 0 -- -- 71
2018-02-06 19:00:00 9.8 11 Este 45 Sudeste 0 -- -- 68
2018-02-06 18:00:00 9.7 22 Este 49 Sudeste 0 -- -- 74
2018-02-06 17:00:00 10.2 27 Este 48 Este 0 -- -- 77
2018-02-06 16:00:00 11.3 21 Este 49 Sudeste 0 -- -- 76
2018-02-06 15:00:00 11.1 22 Este 42 Este 0.2 -- -- 74
2018-02-06 14:00:00 10.3 19 Sudeste 39 Este 0.4 -- -- 86
2018-02-06 13:00:00 10.2 21 Este 42 Sudeste 0 -- -- 78
2018-02-06 12:00:00 10.4 21 Este 40 Este 0 -- -- 77
2018-02-06 11:00:00 9.8 14 Este 37 Sudeste 0 -- -- 76
2018-02-06 10:00:00 9.2 21 Este 39 Este 0 -- -- 74
2018-02-06 09:00:00 7.6 7 Este 14 Este 0 -- -- 86
2018-02-06 08:00:00 5.8 6 Este 10 Sudeste 0 -- -- 85
2018-02-06 07:00:00 5.1 4 Este 9 Este 0 -- -- 82
2018-02-06 06:00:00 6.3 8 Este 19 Sudeste 0 -- -- 79
2018-02-06 05:00:00 5 5 Este 12 Este 0 -- -- 81
2018-02-06 04:00:00 5.5 4 Este 8 Este 0 -- -- 83
2018-02-06 03:00:00 5 6 Este 10 Este 0 -- -- 83
2018-02-06 02:00:00 5.3 5 Este 10 Este 0 -- -- 79
2018-02-06 01:00:00 5.6 3 Este 16 Este 0 -- -- 79
2018-02-06 00:00:00 6.9 6 Este 21 Este 0 -- -- 79
2018-02-05 23:00:00 7.4 5 Este 24 Sudeste 0 -- -- 75
2018-02-05 22:00:00 7.8 11 Sudeste 21 Sudeste 0 -- -- 78
2018-02-05 21:00:00 8.1 12 Este 26 Este 0 -- -- 72
2018-02-05 20:00:00 8.4 9 Sudeste 18 Sudeste 0 -- -- 74
2018-02-05 19:00:00 9.7 15 Este 30 Este 0 -- -- 67
2018-02-05 18:00:00 11.2 6 Sur 41 Norte 0 -- -- 60
2018-02-05 17:00:00 12.3 6 Norte 27 Sudeste 0 -- -- 60
2018-02-05 16:00:00 12.4 14 Sudeste 33 Este 0 -- -- 59
2018-02-05 15:00:00 13.2 9 Sur 44 Sudeste 0 -- -- 68
2018-02-05 14:00:00 13.8 9 Sur 30 Oeste 0 -- -- 62
2018-02-05 13:00:00 14.2 12 Nordeste 43 Este 0 -- -- 69
2018-02-05 12:00:00 13.4 16 Este 42 Este 0 -- -- 62
2018-02-05 11:00:00 12.4 18 Este 28 Este 0 -- -- 73
2018-02-05 10:00:00 13.3 5 Noroeste 17 Sudeste 0 -- -- 72
2018-02-05 09:00:00 8.7 4 Este 18 Sudeste 0 -- -- 83
2018-02-05 08:00:00 6.4 8 Sudeste 18 Sur 0 -- -- 93
2018-02-05 07:00:00 6.1 3 Sudeste 12 Sur 0 -- -- 92
2018-02-05 06:00:00 5.7 7 Sudeste 13 Sudeste 0 -- -- 94
2018-02-05 05:00:00 5.6 3 Sudeste 9 Este 0 -- -- 90
2018-02-05 04:00:00 6 4 Sudeste 9 Este 0 -- -- 89
2018-02-05 03:00:00 6.2 3 Sudeste 12 Este 0 -- -- 89
2018-02-05 02:00:00 6.7 7 Nordeste 10 Este 0 -- -- 90
2018-02-05 01:00:00 7.3 4 Este 8 Este 0 -- -- 90
2018-02-05 00:00:00 7.6 3 Este 11 Nordeste 0 -- -- 90
2018-02-04 23:00:00 8.1 4 Este 8 Este 0 -- -- 91
2018-02-04 22:00:00 8.7 3 Sudeste 10 Sudeste 0 -- -- 87
2018-02-04 21:00:00 9.6 4 Sudeste 18 Sudeste 0 -- -- 86
2018-02-04 20:00:00 10.7 5 Sudeste 12 Oeste 0 -- -- 80
2018-02-04 19:00:00 12.1 7 Oeste 16 Oeste 0 -- -- 74
2018-02-04 18:00:00 12.3 6 Sur 25 Sudeste 0 -- -- 72
2018-02-04 17:00:00 12.1 18 Sudeste 30 Sudeste 0 -- -- 80
2018-02-04 16:00:00 14.8 13 Sudoeste 35 Este 0 -- -- 69
2018-02-04 15:00:00 14.1 20 Sudeste 46 Este 0 -- -- 63
2018-02-04 14:00:00 13.7 27 Este 63 Este 0 -- -- 59
2018-02-04 13:00:00 13.3 32 Este 56 Este 0 -- -- 57
2018-02-04 12:00:00 13.4 28 Este 58 Este 0 -- -- 55
2018-02-04 11:00:00 12.5 26 Este 51 Este 0 -- -- 58
2018-02-04 10:00:00 10.7 33 Este 57 Este 0 -- -- 69
2018-02-04 09:00:00 9.1 32 Este 64 Este 0 -- -- 83
2018-02-04 08:00:00 8.9 22 Este 58 Este 0 -- -- 81
2018-02-04 07:00:00 9.1 19 Este 60 Este 0 -- -- 78
2018-02-04 06:00:00 8.5 27 Este 53 Este 0 -- -- 80
2018-02-04 05:00:00 8.8 21 Este 53 Este 0 -- -- 85
2018-02-04 04:00:00 8.7 28 Este 53 Este 0.2 -- -- 89
2018-02-04 03:00:00 9.1 32 Este 55 Este 0 -- -- 84
2018-02-04 02:00:00 8.9 26 Este 47 Este 0 -- -- 89
2018-02-04 01:00:00 9 22 Este 55 Este 0 -- -- 89
2018-02-04 00:00:00 9.9 28 Este 54 Este 0 -- -- 70
2018-02-03 23:00:00 9.3 32 Este 62 Este 0 -- -- 74
2018-02-03 22:00:00 9.3 34 Este 63 Este 0 -- -- 78
2018-02-03 21:00:00 9.7 31 Este 62 Este 0 -- -- 77
2018-02-03 20:00:00 10.8 28 Este 57 Este 0 -- -- 72
2018-02-03 19:00:00 10.6 33 Este 62 Este 0 -- -- 71
2018-02-03 18:00:00 10.7 32 Este 62 Este 0 -- -- 82
2018-02-03 17:00:00 10.8 33 Este 64 Este 0 -- -- 77
2018-02-03 16:00:00 11.5 35 Este 60 Este 0 -- -- 77
2018-02-03 15:00:00 11.7 32 Este 74 Este 0 -- -- 76
2018-02-03 14:00:00 11.7 38 Este 67 Este 0.2 -- -- 80
2018-02-03 13:00:00 11.9 32 Este 60 Sudeste 0 -- -- 84
2018-02-03 12:00:00 12.2 33 Este 67 Este 0 -- -- 73
2018-02-03 11:00:00 11.7 27 Este 59 Este 0 -- -- 66
2018-02-03 10:00:00 9.9 32 Este 67 Este 0 -- -- 78
2018-02-03 09:00:00 10 28 Nordeste 67 Nordeste 0 -- -- 76
2018-02-03 08:00:00 9.6 28 Este 63 Este 0 -- -- 79
2018-02-03 07:00:00 9.7 30 Este 71 Este 0 -- -- 77
2018-02-03 06:00:00 9.6 30 Este 70 Este 0.2 -- -- 76
2018-02-03 05:00:00 9.4 33 Este 64 Este 0 -- -- 85
2018-02-03 04:00:00 9.4 24 Nordeste 56 Este 0.2 -- -- 79
2018-02-03 03:00:00 9.2 29 Este 54 Este 0.4 -- -- 86
2018-02-03 02:00:00 9.6 26 Este 59 Este 0.2 -- -- 84
2018-02-03 01:00:00 9.7 30 Este 65 Este 0 -- -- 81
2018-02-03 00:00:00 10 36 Este 71 Este 0 -- -- 75
2018-02-02 23:00:00 9.8 32 Este 66 Este 0 -- -- 75
2018-02-02 22:00:00 9.9 34 Este 62 Este 0 -- -- 71
2018-02-02 21:00:00 9.8 28 Este 61 Este 0 -- -- 74
2018-02-02 20:00:00 10 30 Este 60 Nordeste 0 -- -- 71
2018-02-02 19:00:00 10.2 28 Este 55 Este 0 -- -- 66
2018-02-02 18:00:00 10.2 24 Este 50 Este 0 -- -- 76
2018-02-02 17:00:00 11.7 27 Este 57 Este 0 -- -- 77
2018-02-02 16:00:00 11.8 28 Este 52 Este 0 -- -- 81
2018-02-02 15:00:00 12.8 27 Este 51 Este 0 -- -- 74
2018-02-02 14:00:00 12.8 30 Este 51 Este 0 -- -- 76
2018-02-02 13:00:00 12.7 30 Este 51 Este 0 -- -- 77
2018-02-02 12:00:00 12.5 28 Este 46 Este 0 -- -- 77
2018-02-02 11:00:00 11.9 18 Este 42 Este 0 -- -- 80
2018-02-02 10:00:00 10.3 25 Este 45 Este 0 -- -- 85
2018-02-02 09:00:00 9.9 19 Este 49 Este 1 -- -- 84
2018-02-02 08:00:00 10 19 Este 43 Este 1 -- -- 86
2018-02-02 07:00:00 9.8 18 Este 40 Sudeste 0.4 -- -- 85
2018-02-02 06:00:00 10 19 Este 42 Este 0 -- -- 78
2018-02-02 05:00:00 9.6 17 Este 32 Este 0.8 -- -- 84
2018-02-02 04:00:00 9.7 14 Este 31 Sudeste 0.8 -- -- 88
2018-02-02 03:00:00 9.3 8 Este 49 Sudeste 0.2 -- -- 88
2018-02-02 02:00:00 10.2 21 Este 41 Sudeste 0 -- -- 64
2018-02-02 01:00:00 10.3 21 Este 44 Este 0 -- -- 70
2018-02-02 00:00:00 9.7 10 Este 44 Este 0 -- -- 73
2018-02-01 23:00:00 10 19 Este 47 Este 0 -- -- 65
2018-02-01 22:00:00 10.8 20 Sudeste 50 Este 0 -- -- 56
2018-02-01 21:00:00 10.5 20 Este 60 Este 0 -- -- 60
2018-02-01 20:00:00 10.6 22 Sudeste 52 Este 0 -- -- 70
2018-02-01 19:00:00 10.8 22 Este 62 Este 0 -- -- 68
2018-02-01 18:00:00 11.4 23 Este 55 Sudeste 0 -- -- 69
2018-02-01 17:00:00 11.7 17 Este 55 Este 0.6 -- -- 70
2018-02-01 16:00:00 12 16 Este 52 Este 0 -- -- 73
2018-02-01 15:00:00 12.4 18 Este 56 Sudeste 0 -- -- 66
2018-02-01 14:00:00 12.5 18 Este 48 Este 0.2 -- -- 70
2018-02-01 13:00:00 12.2 25 Este 57 Este 0.2 -- -- 71
2018-02-01 12:00:00 11.9 26 Este 70 Este 0.2 -- -- 72
2018-02-01 11:00:00 9.9 28 Este 66 Este 2.8 -- -- 76
2018-02-01 10:00:00 10.4 21 Este 58 Este 1 -- -- 74
2018-02-01 09:00:00 9.6 30 Nordeste 66 Nordeste 2.6 -- -- 76
2018-02-01 08:00:00 9.9 31 Este 62 Sudeste 0.8 -- -- 73
2018-02-01 07:00:00 11 22 Nordeste 54 Norte 0 -- -- 61
2018-02-01 06:00:00 9.6 14 Este 42 Nordeste 0 -- -- 70
2018-02-01 05:00:00 7.9 7 Sudeste 40 Sudeste 0 -- -- 66
2018-02-01 04:00:00 9.8 26 Este 52 Este 0 -- -- 59
2018-02-01 03:00:00 9.1 23 Sudeste 58 Este 0 -- -- 65
2018-02-01 02:00:00 9.7 27 Este 54 Sudeste 0 -- -- 64
2018-02-01 01:00:00 10.1 26 Este 50 Este 0 -- -- 67
2018-02-01 00:00:00 10.1 27 Este 52 Este 0 -- -- 74
2018-01-31 23:00:00 10.4 20 Sudeste 35 Este 0 -- -- 69
2018-01-31 22:00:00 10.4 12 Sudeste 26 Sudeste 0 -- -- 78
2018-01-31 21:00:00 10.3 14 Sudeste 37 Este 0.6 -- -- 80
2018-01-31 20:00:00 10.8 15 Este 39 Nordeste 0 -- -- 76
2018-01-31 19:00:00 11.7 5 Nordeste 29 Noroeste 0 -- -- 62
2018-01-31 18:00:00 12.5 11 Norte 30 Noroeste 0 -- -- 61
2018-01-31 17:00:00 12.9 14 Noroeste 32 Sur 0 -- -- 61
2018-01-31 16:00:00 13.2 6 Noroeste 29 Noroeste 0 -- -- 65
2018-01-31 15:00:00 13.5 13 Oeste 26 Sudoeste 0 -- -- 64
2018-01-31 14:00:00 13.9 11 Noroeste 23 Oeste 0 -- -- 60
2018-01-31 13:00:00 14.2 12 Oeste 24 Oeste 0 -- -- 61
2018-01-31 12:00:00 14.2 10 Oeste 23 Oeste 0 -- -- 58
2018-01-31 11:00:00 13.6 4 Noroeste 10 Oeste 0 -- -- 61
2018-01-31 10:00:00 11.1 2 Este 8 Sudeste 0 -- -- 71
2018-01-31 09:00:00 6 6 Sudeste 14 Este 0 -- -- 88
2018-01-31 08:00:00 4.6 4 Este 14 Sur 0 -- -- 87
2018-01-31 07:00:00 4.3 5 Este 9 Sudeste 0 -- -- 87
2018-01-31 06:00:00 4.6 5 Este 10 Este 0 -- -- 85
2018-01-31 05:00:00 5.1 5 Sudeste 9 Sudeste 0 -- -- 82
2018-01-31 04:00:00 5.5 3 Este 8 Este 0 -- -- 80
2018-01-31 03:00:00 5.9 4 Este 17 Sudeste 0 -- -- 78
2018-01-31 02:00:00 7.8 13 Sudeste 29 Sudeste 0 -- -- 74
2018-01-31 01:00:00 6.7 4 Este 11 Este 0 -- -- 73
2018-01-31 00:00:00 6.9 3 Sur 13 Este 0 -- -- 70
2018-01-30 23:00:00 9 12 Nordeste 44 Este 0 -- -- 64
2018-01-30 22:00:00 9.7 27 Este 52 Este 0 -- -- 63
2018-01-30 21:00:00 9.9 27 Este 54 Este 0 -- -- 64
2018-01-30 20:00:00 9.8 30 Este 55 Este 0 -- -- 68
2018-01-30 19:00:00 9.8 32 Este 60 Este 0 -- -- 59
2018-01-30 18:00:00 10.8 36 Este 65 Este 0 -- -- 64
2018-01-30 17:00:00 11.4 39 Este 64 Este 0 -- -- 65
2018-01-30 16:00:00 12 30 Este 51 Este 0 -- -- 68
2018-01-30 15:00:00 14.6 19 Sudeste 40 Sudeste 0 -- -- 52
2018-01-30 14:00:00 14.9 10 Sudoeste 45 Nordeste 0 -- -- 49
2018-01-30 13:00:00 13.5 13 Sur 48 Norte 0 -- -- 59
2018-01-30 12:00:00 13.1 10 Norte 48 Nordeste 0 -- -- 66
2018-01-30 11:00:00 11.1 5 Sudeste 18 Norte 0.4 -- -- 73
2018-01-30 10:00:00 10 4 Sudeste 22 Sur 0.2 -- -- 87
2018-01-30 09:00:00 9 8 Sudeste 27 Sur 0 -- -- 86
2018-01-30 08:00:00 8.2 4 Este 8 Sudeste 0 -- -- 88
2018-01-30 07:00:00 8.5 4 Oeste 13 Este 0 -- -- 88
2018-01-30 06:00:00 8.5 7 Este 15 Nordeste 0.4 -- -- 88
2018-01-30 05:00:00 7.9 4 Sudeste 9 Este 0 -- -- 85
2018-01-30 04:00:00 7.9 0 Calma 12 Este 0 -- -- 87
2018-01-30 03:00:00 7.9 6 Sudeste 12 Sudeste 0 -- -- 84
2018-01-30 02:00:00 7.7 3 Sur 10 Sur 0 -- -- 80
2018-01-30 01:00:00 7.7 3 Este 17 Este 0 -- -- 77
2018-01-30 00:00:00 8 2 Nordeste 14 Sudeste 0 -- -- 75
2018-01-29 23:00:00 8.8 6 Sudeste 24 Sur 0 -- -- 72
2018-01-29 22:00:00 9.4 9 Este 21 Norte 0 -- -- 66
2018-01-29 21:00:00 9.5 10 Norte 27 Norte 0 -- -- 66
2018-01-29 20:00:00 8.6 6 Este 26 Sudeste 0 -- -- 66
2018-01-29 19:00:00 9.2 11 Sudeste 23 Sur 0 -- -- 62
2018-01-29 18:00:00 10.4 10 Sudeste 35 Este 0 -- -- 65
2018-01-29 17:00:00 11.4 22 Este 36 Este 0 -- -- 58
2018-01-29 16:00:00 13.2 9 Noroeste 44 Este 0 -- -- 54
2018-01-29 15:00:00 14.1 10 Este 34 Norte 0 -- -- 49
2018-01-29 14:00:00 14 12 Norte 32 Sudeste 0 -- -- 51
2018-01-29 13:00:00 13.5 5 Este 26 Oeste 0 -- -- 59
2018-01-29 12:00:00 12.7 13 Oeste 29 Nordeste 0 -- -- 67
2018-01-29 11:00:00 10.1 7 Oeste 19 Noroeste 0 -- -- 74
2018-01-29 10:00:00 9 3 Sudeste 13 Sur 0 -- -- 78
2018-01-29 09:00:00 5.9 4 Este 13 Sudeste 0 -- -- 87
2018-01-29 08:00:00 5.3 6 Sudeste 9 Sudeste 0 -- -- 92
2018-01-29 07:00:00 4.5 5 Este 8 Este 0 -- -- 91
2018-01-29 06:00:00 4.6 4 Este 12 Este 0 -- -- 87
2018-01-29 05:00:00 5.1 4 Este 12 Nordeste 0 -- -- 80
2018-01-29 04:00:00 5.5 5 Nordeste 10 Nordeste 0 -- -- 80
2018-01-29 03:00:00 7.6 5 Este 45 Este 0 -- -- 70
2018-01-29 02:00:00 8.4 22 Este 51 Este 0 -- -- 68
2018-01-29 01:00:00 8.3 23 Este 57 Este 0 -- -- 69
2018-01-29 00:00:00 8.4 40 Este 60 Este 0 -- -- 70
2018-01-28 23:00:00 8.8 28 Este 70 Este 0 -- -- 72
2018-01-28 22:00:00 8.7 40 Este 68 Sudeste 0 -- -- 76
2018-01-28 21:00:00 9.8 23 Nordeste 54 Este 0 -- -- 71
2018-01-28 20:00:00 9.8 10 Este 44 Este 0 -- -- 62
2018-01-28 19:00:00 9.8 10 Nordeste 70 Nordeste 0 -- -- 71
2018-01-28 18:00:00 10.1 29 Este 76 Nordeste 0 -- -- 69
2018-01-28 17:00:00 10.7 32 Nordeste 70 Nordeste 0 -- -- 65
2018-01-28 16:00:00 11.1 27 Nordeste 60 Nordeste 0 -- -- 76
2018-01-28 15:00:00 10.7 25 Nordeste 63 Este 0.2 -- -- 80
2018-01-28 14:00:00 11.6 25 Este 52 Este 1.2 -- -- 87
2018-01-28 13:00:00 12 24 Nordeste 63 Nordeste 0 -- -- 73
2018-01-28 12:00:00 10.1 28 Nordeste 59 Nordeste 0.4 -- -- 87
2018-01-28 11:00:00 10.2 24 Nordeste 77 Este 0.2 -- -- 77
2018-01-28 10:00:00 10.4 26 Nordeste 66 Este 0 -- -- 78
2018-01-28 09:00:00 10 14 Este 61 Este 0 -- -- 83
2018-01-28 08:00:00 10.5 25 Este 74 Sudeste 0 -- -- 77
2018-01-28 07:00:00 9.4 27 Nordeste 69 Este 0 -- -- 76
2018-01-28 06:00:00 9.4 26 Este 64 Este 0 -- -- 76
2018-01-28 05:00:00 9.6 27 Este 58 Nordeste 0.2 -- -- 80
2018-01-28 04:00:00 9.3 32 Este 61 Nordeste 0 -- -- 85
2018-01-28 03:00:00 9.7 28 Este 70 Este 0 -- -- 77
2018-01-28 02:00:00 9.5 26 Este 62 Sudeste 0.2 -- -- 79
2018-01-28 01:00:00 10.1 37 Este 73 Este 0 -- -- 74
2018-01-28 00:00:00 10.5 32 Este 74 Este 0 -- -- 73
2018-01-27 23:00:00 9.8 32 Este 64 Este 0 -- -- 79
2018-01-27 22:00:00 9.9 29 Este 75 Este 0 -- -- 83
2018-01-27 21:00:00 10.2 32 Este 64 Nordeste 0 -- -- 79
2018-01-27 20:00:00 9.9 28 Este 65 Este 0 -- -- 82
2018-01-27 19:00:00 10.2 30 Este 70 Este 0 -- -- 74
2018-01-27 18:00:00 10.6 31 Este 67 Este 0 -- -- 70
2018-01-27 17:00:00 10.4 33 Este 67 Sudeste 0 -- -- 74
2018-01-27 16:00:00 11.9 27 Este 70 Este 0 -- -- 72
2018-01-27 15:00:00 11.6 38 Este 77 Nordeste 0 -- -- 70
2018-01-27 14:00:00 11.6 42 Este 89 Este 0 -- -- 70
2018-01-27 13:00:00 10.8 46 Este 89 Este 0 -- -- 73
2018-01-27 12:00:00 10.5 46 Este 88 Este 0 -- -- 78
2018-01-27 11:00:00 8.7 47 Este 87 Este 0.2 -- -- 90
2018-01-27 10:00:00 9 49 Este 87 Este 0 -- -- 79
2018-01-27 09:00:00 8.8 39 Este 83 Este 0.2 -- -- 81
2018-01-27 08:00:00 8.7 34 Este 92 Este 0 -- -- 84
2018-01-27 07:00:00 8.2 38 Este 96 Nordeste 0.8 -- -- 92
2018-01-27 06:00:00 7.8 45 Este 81 Este 1.6 -- -- 95
2018-01-27 05:00:00 8.1 48 Este 81 Este 0.6 -- -- 93
2018-01-27 04:00:00 8 39 Este 85 Este 0.8 -- -- 92
2018-01-27 03:00:00 8.7 39 Este 82 Este 0 -- -- 82
2018-01-27 02:00:00 8.7 39 Este 82 Este 0.4 -- -- 86
2018-01-27 01:00:00 8.7 31 Este 70 Este 0.4 -- -- 91
2018-01-27 00:00:00 8.8 40 Este 84 Este 0.6 -- -- 87
2018-01-26 23:00:00 9 39 Este 71 Este 0.2 -- -- 84
2018-01-26 22:00:00 9.1 29 Este 67 Nordeste 0.2 -- -- 88
2018-01-26 21:00:00 9 30 Este 75 Nordeste 0 -- -- 87
2018-01-26 20:00:00 9.3 33 Este 76 Este 0.4 -- -- 83
2018-01-26 19:00:00 9.2 34 Este 71 Este 0.8 -- -- 88
2018-01-26 18:00:00 10 29 Este 75 Este 0.8 -- -- 92
2018-01-26 17:00:00 10.8 23 Este 67 Este 0 -- -- 82
2018-01-26 16:00:00 11.5 34 Este 60 Este 0 -- -- 78
2018-01-26 15:00:00 11.5 31 Este 64 Este 0 -- -- 82
2018-01-26 14:00:00 11.8 32 Este 68 Este 0 -- -- 85
2018-01-26 13:00:00 11.6 34 Este 69 Este 0.6 -- -- 89
2018-01-26 12:00:00 11.5 32 Este 65 Este 0.8 -- -- 93
2018-01-26 11:00:00 11.5 36 Este 65 Este 0.6 -- -- 92
2018-01-26 10:00:00 11.4 33 Este 66 Este 0 -- -- 88
2018-01-26 09:00:00 11.5 39 Este 72 Este 0 -- -- 76
2018-01-26 08:00:00 11.3 37 Este 68 Este 0 -- -- 76
2018-01-26 07:00:00 10.8 35 Este 65 Nordeste 0 -- -- 72
2018-01-26 06:00:00 10.4 36 Este 84 Este 0 -- -- 72
2018-01-26 05:00:00 9.8 32 Este 64 Este 0 -- -- 76
2018-01-26 04:00:00 10.3 31 Este 63 Este 0 -- -- 70
2018-01-26 03:00:00 10.7 29 Este 74 Sudeste 0 -- -- 71
2018-01-26 02:00:00 10.4 39 Este 69 Este 0 -- -- 74
2018-01-26 01:00:00 10.2 36 Este 67 Este 0 -- -- 79
2018-01-26 00:00:00 10.6 35 Este 68 Este 0 -- -- 71
2018-01-25 23:00:00 10.2 36 Este 72 Este 0 -- -- 73
2018-01-25 22:00:00 9.7 35 Este 62 Este 0 -- -- 78
2018-01-25 21:00:00 9.7 31 Este 53 Este 0 -- -- 78
2018-01-25 20:00:00 9.8 31 Este 54 Este 0 -- -- 78
2018-01-25 19:00:00 10 30 Sudeste 51 Sudeste 0 -- -- 78
2018-01-25 18:00:00 11.4 34 Este 54 Sudeste 0 -- -- 71
2018-01-25 17:00:00 13.3 33 Este 54 Este 0 -- -- 59
2018-01-25 16:00:00 16.4 30 Este 42 Este 0 -- -- 40
2018-01-25 15:00:00 14.5 19 Este 53 Sudeste 0 -- -- 60
2018-01-25 14:00:00 13.3 37 Este 60 Sudeste 0 -- -- 68
2018-01-25 13:00:00 13.1 33 Este 57 Este 0 -- -- 71
2018-01-25 12:00:00 13 30 Este 59 Este 0 -- -- 69
2018-01-25 11:00:00 12.4 33 Este 55 Sudeste 0 -- -- 68
2018-01-25 10:00:00 11.3 33 Sudeste 53 Este 0 -- -- 74
2018-01-25 09:00:00 11.5 10 Este 28 Sudeste 0 -- -- 41
2018-01-25 08:00:00 10.2 17 Sudeste 38 Este 0 -- -- 65
2018-01-25 07:00:00 10.6 14 Este 36 Este 0 -- -- 58
2018-01-25 06:00:00 10.3 15 Este 43 Sudeste 0 -- -- 66
2018-01-25 05:00:00 15.6 18 Este 45 Sudeste 0 -- -- 10
2018-01-25 04:00:00 15.6 15 Este 38 Este 0 -- -- 12
2018-01-25 03:00:00 15.6 17 Este 37 Este 0 -- -- 10
2018-01-25 02:00:00 15.1 18 Este 40 Este 0 -- -- 20
2018-01-25 01:00:00 15.6 22 Este 40 Este 0 -- -- 17
2018-01-25 00:00:00 15.6 17 Este 43 Este 0 -- -- 18
2018-01-24 23:00:00 16.4 17 Este 38 Sudeste 0 -- -- 17
2018-01-24 22:00:00 16.5 13 Este 40 Sudeste 0 -- -- 17
2018-01-24 21:00:00 16.8 14 Este 43 Sudeste 0 -- -- 16
2018-01-24 20:00:00 17.2 12 Este 41 Este 0 -- -- 17
2018-01-24 19:00:00 17.4 8 Nordeste 30 Sudeste 0 -- -- 17
2018-01-24 18:00:00 17.8 5 Este 27 Este 0 -- -- 26
2018-01-24 17:00:00 18.5 15 Este 33 Este 0 -- -- 20
2018-01-24 16:00:00 19.7 12 Este 35 Este 0 -- -- 20
2018-01-24 15:00:00 20.2 14 Este 34 Este 0 -- -- 22
2018-01-24 14:00:00 19.3 15 Este 32 Sudeste 0 -- -- 25
2018-01-24 13:00:00 20.5 15 Este 42 Este 0 -- -- 19
2018-01-24 12:00:00 19.9 17 Este 43 Este 0 -- -- 19
2018-01-24 11:00:00 19.7 19 Este 40 Nordeste 0 -- -- 18
2018-01-24 10:00:00 19.2 6 Sudeste 32 Nordeste 0 -- -- 19
2018-01-24 09:00:00 17.5 12 Nordeste 30 Sur 0 -- -- 17
2018-01-24 08:00:00 16.9 11 Este 28 Nordeste 0 -- -- 21
2018-01-24 07:00:00 15.6 10 Este 39 Nordeste 0 -- -- 23
2018-01-24 06:00:00 15 6 Este 20 Sudeste 0 -- -- 24
2018-01-24 05:00:00 13.1 5 Este 24 Sudeste 0 -- -- 30
2018-01-24 04:00:00 11.9 7 Sudeste 27 Nordeste 0 -- -- 34
2018-01-24 03:00:00 14.6 9 Este 32 Este 0 -- -- 28
2018-01-24 02:00:00 12.2 8 Sudeste 21 Nordeste 0 -- -- 28
2018-01-24 01:00:00 10.4 6 Sudeste 19 Este 0 -- -- 34
2018-01-24 00:00:00 12.5 4 Sur 25 Sudeste 0 -- -- 35
2018-01-23 23:00:00 15.3 10 Este 32 Este 0 -- -- 21
2018-01-23 22:00:00 11.1 8 Sudeste 21 Este 0 -- -- 44
2018-01-23 21:00:00 10.7 6 Este 15 Este 0 -- -- 57
2018-01-23 20:00:00 11.5 4 Este 10 Este 0 -- -- 62
2018-01-23 19:00:00 14.3 3 Oeste 13 Oeste 0 -- -- 68
2018-01-23 18:00:00 16.6 8 Oeste 17 Sudoeste 0 -- -- 65
2018-01-23 17:00:00 19 10 Oeste 19 Sudeste 0 -- -- 58
2018-01-23 16:00:00 20.1 8 Sur 31 Sudeste 0 -- -- 49
2018-01-23 15:00:00 20.3 6 Oeste 30 Este 0 -- -- 28
2018-01-23 14:00:00 19.8 18 Este 34 Este 0 -- -- 24
2018-01-23 13:00:00 19.2 19 Sudeste 35 Este 0 -- -- 31
2018-01-23 12:00:00 16.1 24 Sudeste 44 Este 0 -- -- 55
2018-01-23 11:00:00 13.6 28 Este 54 Este 0 -- -- 71
2018-01-23 10:00:00 11.9 36 Este 62 Este 0 -- -- 76
2018-01-23 09:00:00 10.8 39 Este 64 Este 0 -- -- 79
2018-01-23 08:00:00 10.3 37 Este 57 Este 0 -- -- 82
2018-01-23 07:00:00 10.5 33 Este 59 Este 0 -- -- 77
2018-01-23 06:00:00 10.6 31 Este 46 Este 0 -- -- 75
2018-01-23 05:00:00 10.6 25 Este 52 Sudeste 0 -- -- 77
2018-01-23 04:00:00 10.3 25 Este 47 Este 0 -- -- 80
2018-01-23 03:00:00 10.9 23 Este 42 Este 0 -- -- 77
2018-01-23 02:00:00 10.9 10 Este 29 Este 0 -- -- 37
2018-01-23 01:00:00 11.1 20 Este 39 Este 0 -- -- 69
2018-01-23 00:00:00 11.9 14 Este 30 Este 0 -- -- 54
2018-01-22 23:00:00 10.2 7 Este 13 Este 0 -- -- 39
2018-01-22 22:00:00 10.2 6 Este 14 Nordeste 0 -- -- 42
2018-01-22 21:00:00 10.7 5 Este 9 Este 0 -- -- 45
2018-01-22 20:00:00 11.9 4 Este 8 Este 0 -- -- 44
2018-01-22 19:00:00 14.7 0 Calma 9 Sudoeste 0 -- -- 41
2018-01-22 18:00:00 17.7 5 Oeste 24 Nordeste 0 -- -- 34
2018-01-22 17:00:00 18.3 13 Este 24 Este 0 -- -- 27
2018-01-22 16:00:00 19 8 Oeste 19 Oeste 0 -- -- 33
2018-01-22 15:00:00 19.1 11 Oeste 21 Oeste 0 -- -- 36
2018-01-22 14:00:00 19.5 11 Oeste 23 Oeste 0 -- -- 37
2018-01-22 13:00:00 19.7 10 Oeste 16 Oeste 0 -- -- 32
2018-01-22 12:00:00 19.3 7 Oeste 18 Oeste 0 -- -- 24
2018-01-22 11:00:00 18.1 10 Sudoeste 33 Sudeste 0 -- -- 31
2018-01-22 10:00:00 16.4 18 Sudeste 35 Este 0 -- -- 23
2018-01-22 09:00:00 13.8 15 Sudeste 27 Sudeste 0 -- -- 23
2018-01-22 08:00:00 12.8 16 Sudeste 40 Sudeste 0 -- -- 24
2018-01-22 07:00:00 12.7 19 Sudeste 29 Sudeste 0 -- -- 29
2018-01-22 06:00:00 12.8 5 Este 31 Nordeste 0 -- -- 23
2018-01-22 05:00:00 15.7 18 Este 45 Este 0 -- -- 13
2018-01-22 04:00:00 15.7 25 Este 49 Este 0 -- -- 15
2018-01-22 03:00:00 15.5 25 Este 53 Este 0 -- -- 17
2018-01-22 02:00:00 15.5 35 Este 61 Este 0 -- -- 19
2018-01-22 01:00:00 15.4 32 Este 59 Este 0 -- -- 19
2018-01-22 00:00:00 15.6 32 Este 55 Este 0 -- -- 16